Terminal Aerodrome Forecast
Issued by NWS Sioux Falls, SD

Home | Current Version | Previous Version | Text Only | Print | Product List | Glossary On
Versions: 1 2 3 4 5 6 7 8 9 10 11 12 13 14 15 16 17 18
878
FTUS43 KFSD 220346 AAA
TAFHON
TAF AMD
KHON 220346Z 2204/2224 30004KT P6SM OVC012
     FM220700 31006KT P6SM OVC008
     FM221900 30010KT P6SM OVC012
     FM222300 30009KT P6SM OVC025=

USA.gov is the U.S. government's official web portal to all federal, state and local government web resources and services.